sensor_id;sensor_type;location;lat;lon;timestamp;P1;durP1;ratioP1;P2;durP2;ratioP2
48026;SDS011;50714;49.208;5.364;2023-09-12T00:09:44;4.78;;;4.18;;
48026;SDS011;50714;49.208;5.364;2023-09-12T00:19:44;5.20;;;4.03;;
48026;SDS011;50714;49.208;5.364;2023-09-12T00:29:44;4.57;;;4.18;;
48026;SDS011;50714;49.208;5.364;2023-09-12T00:39:45;4.78;;;4.10;;
48026;SDS011;50714;49.208;5.364;2023-09-12T00:49:47;5.47;;;4.20;;
48026;SDS011;50714;49.208;5.364;2023-09-12T00:59:49;4.80;;;4.20;;
48026;SDS011;50714;49.208;5.364;2023-09-12T01:09:49;6.25;;;4.30;;
48026;SDS011;50714;49.208;5.364;2023-09-12T01:19:49;5.38;;;3.70;;
48026;SDS011;50714;49.208;5.364;2023-09-12T01:29:51;5.65;;;4.30;;
48026;SDS011;50714;49.208;5.364;2023-09-12T01:39:56;5.20;;;4.07;;
48026;SDS011;50714;49.208;5.364;2023-09-12T01:49:57;5.30;;;3.92;;
48026;SDS011;50714;49.208;5.364;2023-09-12T02:00:00;5.15;;;4.18;;
48026;SDS011;50714;49.208;5.364;2023-09-12T02:10:01;6.68;;;4.18;;
48026;SDS011;50714;49.208;5.364;2023-09-12T02:20:01;4.90;;;4.22;;
48026;SDS011;50714;49.208;5.364;2023-09-12T02:30:05;5.20;;;4.30;;
48026;SDS011;50714;49.208;5.364;2023-09-12T02:40:06;5.00;;;4.13;;
48026;SDS011;50714;49.208;5.364;2023-09-12T02:50:07;5.50;;;4.38;;
48026;SDS011;50714;49.208;5.364;2023-09-12T03:00:08;5.18;;;4.68;;
48026;SDS011;50714;49.208;5.364;2023-09-12T03:10:09;4.38;;;3.97;;
48026;SDS011;50714;49.208;5.364;2023-09-12T03:20:09;4.75;;;4.10;;
48026;SDS011;50714;49.208;5.364;2023-09-12T03:30:10;5.20;;;4.40;;
48026;SDS011;50714;49.208;5.364;2023-09-12T03:40:11;4.60;;;4.20;;
48026;SDS011;50714;49.208;5.364;2023-09-12T03:50:11;5.73;;;4.20;;
48026;SDS011;50714;49.208;5.364;2023-09-12T04:00:12;4.50;;;3.92;;
48026;SDS011;50714;49.208;5.364;2023-09-12T04:10:13;5.13;;;4.22;;
48026;SDS011;50714;49.208;5.364;2023-09-12T04:20:14;5.70;;;4.30;;
48026;SDS011;50714;49.208;5.364;2023-09-12T04:30:14;4.90;;;3.97;;
48026;SDS011;50714;49.208;5.364;2023-09-12T04:40:15;4.90;;;4.45;;
48026;SDS011;50714;49.208;5.364;2023-09-12T04:50:15;6.43;;;4.22;;
48026;SDS011;50714;49.208;5.364;2023-09-12T05:00:16;4.53;;;3.92;;
48026;SDS011;50714;49.208;5.364;2023-09-12T05:10:16;5.15;;;4.35;;
48026;SDS011;50714;49.208;5.364;2023-09-12T05:20:18;4.55;;;4.07;;
48026;SDS011;50714;49.208;5.364;2023-09-12T05:30:18;5.32;;;4.47;;
48026;SDS011;50714;49.208;5.364;2023-09-12T05:40:20;5.57;;;4.53;;
48026;SDS011;50714;49.208;5.364;2023-09-12T05:50:20;5.32;;;4.22;;
48026;SDS011;50714;49.208;5.364;2023-09-12T06:00:21;5.72;;;3.90;;
48026;SDS011;50714;49.208;5.364;2023-09-12T06:10:21;4.65;;;3.92;;
48026;SDS011;50714;49.208;5.364;2023-09-12T06:20:22;4.88;;;4.10;;
48026;SDS011;50714;49.208;5.364;2023-09-12T06:30:22;6.07;;;4.18;;
48026;SDS011;50714;49.208;5.364;2023-09-12T06:40:23;9.05;;;5.03;;
48026;SDS011;50714;49.208;5.364;2023-09-12T06:50:23;5.78;;;4.93;;
48026;SDS011;50714;49.208;5.364;2023-09-12T07:00:23;6.85;;;5.18;;
48026;SDS011;50714;49.208;5.364;2023-09-12T07:10:24;5.97;;;5.37;;
48026;SDS011;50714;49.208;5.364;2023-09-12T07:20:25;6.63;;;5.43;;
48026;SDS011;50714;49.208;5.364;2023-09-12T07:30:25;5.97;;;5.38;;
48026;SDS011;50714;49.208;5.364;2023-09-12T07:40:25;6.40;;;5.30;;
48026;SDS011;50714;49.208;5.364;2023-09-12T07:50:26;6.00;;;5.40;;
48026;SDS011;50714;49.208;5.364;2023-09-12T08:00:29;6.97;;;6.28;;
48026;SDS011;50714;49.208;5.364;2023-09-12T08:10:29;6.47;;;5.43;;
48026;SDS011;50714;49.208;5.364;2023-09-12T08:20:30;6.60;;;5.05;;
48026;SDS011;50714;49.208;5.364;2023-09-12T08:30:30;6.00;;;5.40;;
48026;SDS011;50714;49.208;5.364;2023-09-12T08:40:32;6.13;;;5.43;;
48026;SDS011;50714;49.208;5.364;2023-09-12T08:50:32;6.65;;;4.90;;
48026;SDS011;50714;49.208;5.364;2023-09-12T09:00:34;5.75;;;5.20;;
48026;SDS011;50714;49.208;5.364;2023-09-12T09:10:35;4.70;;;4.07;;
48026;SDS011;50714;49.208;5.364;2023-09-12T09:20:36;5.95;;;5.32;;
48026;SDS011;50714;49.208;5.364;2023-09-12T09:30:41;6.45;;;5.80;;
48026;SDS011;50714;49.208;5.364;2023-09-12T09:40:43;8.02;;;5.50;;
48026;SDS011;50714;49.208;5.364;2023-09-12T09:50:44;5.22;;;4.45;;
48026;SDS011;50714;49.208;5.364;2023-09-12T10:00:44;5.55;;;5.03;;
48026;SDS011;50714;49.208;5.364;2023-09-12T10:10:47;5.78;;;4.90;;
48026;SDS011;50714;49.208;5.364;2023-09-12T10:20:50;5.25;;;4.43;;
48026;SDS011;50714;49.208;5.364;2023-09-12T10:30:54;5.13;;;4.57;;
48026;SDS011;50714;49.208;5.364;2023-09-12T10:40:57;4.72;;;4.20;;
48026;SDS011;50714;49.208;5.364;2023-09-12T10:51:00;6.10;;;4.75;;
48026;SDS011;50714;49.208;5.364;2023-09-12T11:01:22;5.90;;;4.13;;
48026;SDS011;50714;49.208;5.364;2023-09-12T11:11:25;5.07;;;3.85;;
48026;SDS011;50714;49.208;5.364;2023-09-12T11:21:32;4.40;;;3.42;;
48026;SDS011;50714;49.208;5.364;2023-09-12T11:31:33;4.53;;;2.90;;
48026;SDS011;50714;49.208;5.364;2023-09-12T11:51:50;3.00;;;2.70;;
48026;SDS011;50714;49.208;5.364;2023-09-12T12:01:52;5.80;;;3.15;;
48026;SDS011;50714;49.208;5.364;2023-09-12T12:11:53;3.58;;;2.90;;
48026;SDS011;50714;49.208;5.364;2023-09-12T12:21:54;3.50;;;2.67;;
48026;SDS011;50714;49.208;5.364;2023-09-12T12:31:58;2.47;;;2.28;;
48026;SDS011;50714;49.208;5.364;2023-09-12T12:42:00;4.45;;;2.50;;
48026;SDS011;50714;49.208;5.364;2023-09-12T12:52:00;2.90;;;2.13;;
48026;SDS011;50714;49.208;5.364;2023-09-12T13:02:02;3.85;;;2.40;;
48026;SDS011;50714;49.208;5.364;2023-09-12T13:12:03;2.35;;;2.05;;
48026;SDS011;50714;49.208;5.364;2023-09-12T13:22:05;2.60;;;2.20;;
48026;SDS011;50714;49.208;5.364;2023-09-12T13:32:05;4.25;;;2.45;;
48026;SDS011;50714;49.208;5.364;2023-09-12T13:42:06;5.85;;;2.65;;
48026;SDS011;50714;49.208;5.364;2023-09-12T13:52:08;4.78;;;2.65;;
48026;SDS011;50714;49.208;5.364;2023-09-12T14:02:08;2.88;;;2.15;;
48026;SDS011;50714;49.208;5.364;2023-09-12T14:12:08;3.63;;;2.10;;
48026;SDS011;50714;49.208;5.364;2023-09-12T14:22:10;3.72;;;2.88;;
48026;SDS011;50714;49.208;5.364;2023-09-12T14:32:11;7.10;;;3.22;;
48026;SDS011;50714;49.208;5.364;2023-09-12T14:42:12;3.38;;;2.80;;
48026;SDS011;50714;49.208;5.364;2023-09-12T14:52:12;3.78;;;3.08;;
48026;SDS011;50714;49.208;5.364;2023-09-12T15:02:12;3.20;;;2.88;;
48026;SDS011;50714;49.208;5.364;2023-09-12T15:12:13;2.88;;;2.20;;
48026;SDS011;50714;49.208;5.364;2023-09-12T15:22:13;3.97;;;2.58;;
48026;SDS011;50714;49.208;5.364;2023-09-12T15:32:13;2.58;;;2.13;;
48026;SDS011;50714;49.208;5.364;2023-09-12T15:42:14;2.65;;;2.10;;
48026;SDS011;50714;49.208;5.364;2023-09-12T15:52:14;2.70;;;2.30;;
48026;SDS011;50714;49.208;5.364;2023-09-12T16:02:15;3.03;;;2.00;;
48026;SDS011;50714;49.208;5.364;2023-09-12T16:12:16;3.42;;;1.95;;
48026;SDS011;50714;49.208;5.364;2023-09-12T16:22:17;3.22;;;2.08;;
48026;SDS011;50714;49.208;5.364;2023-09-12T16:32:17;2.72;;;1.80;;
48026;SDS011;50714;49.208;5.364;2023-09-12T16:42:17;1.73;;;1.50;;
48026;SDS011;50714;49.208;5.364;2023-09-12T16:52:18;1.95;;;1.67;;
48026;SDS011;50714;49.208;5.364;2023-09-12T17:02:18;2.67;;;2.22;;
48026;SDS011;50714;49.208;5.364;2023-09-12T17:12:19;1.70;;;1.60;;
48026;SDS011;50714;49.208;5.364;2023-09-12T17:22:19;2.17;;;1.88;;
48026;SDS011;50714;49.208;5.364;2023-09-12T17:32:20;3.38;;;2.42;;
48026;SDS011;50714;49.208;5.364;2023-09-12T17:42:21;2.97;;;2.05;;
48026;SDS011;50714;49.208;5.364;2023-09-12T17:52:21;2.38;;;1.75;;
48026;SDS011;50714;49.208;5.364;2023-09-12T18:02:21;3.25;;;1.98;;
48026;SDS011;50714;49.208;5.364;2023-09-12T18:12:22;2.50;;;2.10;;
48026;SDS011;50714;49.208;5.364;2023-09-12T18:22:23;2.20;;;1.90;;
48026;SDS011;50714;49.208;5.364;2023-09-12T18:32:24;2.63;;;1.90;;
48026;SDS011;50714;49.208;5.364;2023-09-12T18:42:24;1.65;;;1.38;;
48026;SDS011;50714;49.208;5.364;2023-09-12T18:52:24;1.80;;;1.52;;
48026;SDS011;50714;49.208;5.364;2023-09-12T19:02:25;1.77;;;1.60;;
48026;SDS011;50714;49.208;5.364;2023-09-12T19:12:25;2.85;;;1.55;;
48026;SDS011;50714;49.208;5.364;2023-09-12T19:22:25;1.60;;;1.48;;
48026;SDS011;50714;49.208;5.364;2023-09-12T19:32:26;2.20;;;1.40;;
48026;SDS011;50714;49.208;5.364;2023-09-12T19:42:27;1.63;;;1.52;;
48026;SDS011;50714;49.208;5.364;2023-09-12T19:52:27;1.73;;;1.60;;
48026;SDS011;50714;49.208;5.364;2023-09-12T20:02:28;1.48;;;1.38;;
48026;SDS011;50714;49.208;5.364;2023-09-12T20:12:28;2.78;;;1.63;;
48026;SDS011;50714;49.208;5.364;2023-09-12T20:22:28;2.30;;;1.70;;
48026;SDS011;50714;49.208;5.364;2023-09-12T20:32:31;2.33;;;1.88;;
48026;SDS011;50714;49.208;5.364;2023-09-12T20:42:31;2.92;;;2.25;;
48026;SDS011;50714;49.208;5.364;2023-09-12T20:52:31;2.58;;;2.35;;
48026;SDS011;50714;49.208;5.364;2023-09-12T21:02:31;3.25;;;2.42;;
48026;SDS011;50714;49.208;5.364;2023-09-12T21:12:32;4.40;;;2.75;;
48026;SDS011;50714;49.208;5.364;2023-09-12T21:22:33;2.60;;;2.35;;
48026;SDS011;50714;49.208;5.364;2023-09-12T21:32:33;2.55;;;2.30;;
48026;SDS011;50714;49.208;5.364;2023-09-12T21:42:34;3.17;;;2.70;;
48026;SDS011;50714;49.208;5.364;2023-09-12T21:52:34;3.28;;;2.88;;
48026;SDS011;50714;49.208;5.364;2023-09-12T22:02:35;2.97;;;2.55;;
48026;SDS011;50714;49.208;5.364;2023-09-12T22:12:35;3.92;;;3.13;;
48026;SDS011;50714;49.208;5.364;2023-09-12T22:22:36;4.10;;;3.10;;
48026;SDS011;50714;49.208;5.364;2023-09-12T22:32:36;4.25;;;3.28;;
48026;SDS011;50714;49.208;5.364;2023-09-12T22:42:37;3.92;;;3.53;;
48026;SDS011;50714;49.208;5.364;2023-09-12T22:52:38;4.25;;;3.33;;
48026;SDS011;50714;49.208;5.364;2023-09-12T23:02:38;4.40;;;3.85;;
48026;SDS011;50714;49.208;5.364;2023-09-12T23:12:38;5.38;;;3.83;;
48026;SDS011;50714;49.208;5.364;2023-09-12T23:22:39;4.38;;;3.70;;
48026;SDS011;50714;49.208;5.364;2023-09-12T23:32:45;4.57;;;3.55;;
48026;SDS011;50714;49.208;5.364;2023-09-12T23:42:46;4.38;;;3.35;;
48026;SDS011;50714;49.208;5.364;2023-09-12T23:52:46;4.05;;;3.42;;
